Time;durP1;ratioP1;P1;durP2;ratioP2;P2;SDS_P1;SDS_P2;PMS_P1;PMS_P2;Temp;Humidity;BMP_temperature;BMP_pressure;BME280_temperature;BME280_humidity;BME280_pressure;Samples;Min_cycle;Max_cycle;Signal;HPM_P1;HPM_P2
2021/04/27 00:01:44;;;;;;;0.60;0.30;;;16.70;54.70;;;;;;10498197;28;20033;-56
2021/04/27 00:06:45;;;;;;;1.25;0.47;;;16.70;54.80;;;;;;10498425;28;20043;-56
2021/04/27 00:11:46;;;;;;;0.75;0.47;;;16.70;54.80;;;;;;10497801;28;20033;-56
2021/04/27 00:16:47;;;;;;;0.35;0.20;;;16.70;54.80;;;;;;10497891;28;20491;-56
2021/04/27 00:21:48;;;;;;;0.40;0.40;;;16.70;54.80;;;;;;10497277;28;20043;-56
2021/04/27 00:26:48;;;;;;;0.68;0.40;;;16.70;54.80;;;;;;10497394;28;20024;-56
2021/04/27 00:31:49;;;;;;;0.25;0.22;;;16.70;54.70;;;;;;10473957;28;20111;-57
2021/04/27 00:36:50;;;;;;;0.55;0.30;;;16.70;54.80;;;;;;10497626;28;20480;-56
2021/04/27 00:41:51;;;;;;;0.85;0.40;;;16.70;54.80;;;;;;10479166;28;20417;-56
2021/04/27 00:46:52;;;;;;;0.30;0.30;;;16.60;54.70;;;;;;10495962;28;20044;-56
2021/04/27 00:51:53;;;;;;;0.55;0.40;;;16.60;54.70;;;;;;10478985;28;20052;-56
2021/04/27 00:56:54;;;;;;;0.40;0.40;;;16.60;54.70;;;;;;10466283;28;20052;-56
2021/04/27 01:01:54;;;;;;;0.52;0.35;;;16.60;54.70;;;;;;10479166;28;20021;-56
2021/04/27 01:06:55;;;;;;;0.90;0.40;;;16.60;54.70;;;;;;10496269;28;20770;-56
2021/04/27 01:12:22;;;;;;;0.95;0.50;;;16.60;54.70;;;;;;10478518;28;20059;-56
2021/04/27 01:17:24;;;;;;;0.40;0.30;;;16.60;54.70;;;;;;10478996;28;20476;-62
2021/04/27 01:22:48;;;;;;;0.32;0.30;;;16.60;54.60;;;;;;10462189;28;20052;-62
2021/04/27 01:27:49;;;;;;;0.93;0.50;;;16.60;54.70;;;;;;10478186;28;20032;-62
2021/04/27 01:32:51;;;;;;;0.40;0.30;;;16.50;54.70;;;;;;10499086;28;20469;-62
2021/04/27 01:37:52;;;;;;;0.85;0.40;;;16.60;54.60;;;;;;10486500;28;20032;-61
2021/04/27 01:42:54;;;;;;;0.75;0.40;;;16.50;54.60;;;;;;10485808;28;20070;-62
2021/04/27 01:47:56;;;;;;;1.00;0.47;;;16.50;54.60;;;;;;10486108;28;20107;-62
2021/04/27 01:52:58;;;;;;;0.73;0.40;;;16.50;54.60;;;;;;10485853;28;20036;-62
2021/04/27 01:57:58;;;;;;;0.88;0.40;;;16.50;54.60;;;;;;10485578;28;20036;-61
2021/04/27 02:02:59;;;;;;;0.30;0.30;;;16.50;54.60;;;;;;10485125;28;20055;-62
2021/04/27 02:08:00;;;;;;;1.17;0.57;;;16.50;54.60;;;;;;10503070;28;20038;-61
2021/04/27 02:13:12;;;;;;;0.90;0.50;;;16.50;54.60;;;;;;10502814;28;20040;-62
2021/04/27 02:18:29;;;;;;;1.13;0.73;;;16.50;54.60;;;;;;10502546;28;20378;-61
2021/04/27 02:23:31;;;;;;;1.70;0.50;;;16.40;54.50;;;;;;10486150;28;20461;-62
2021/04/27 02:28:34;;;;;;;0.30;0.30;;;16.40;54.60;;;;;;10502149;28;20111;-62
2021/04/27 02:33:35;;;;;;;0.22;0.22;;;16.50;54.60;;;;;;10484355;28;20115;-62
2021/04/27 02:38:36;;;;;;;0.32;0.30;;;16.40;54.50;;;;;;10484041;28;20123;-59
2021/04/27 02:43:40;;;;;;;3.20;0.80;;;16.40;54.50;;;;;;10501079;28;20098;-61
2021/04/27 02:48:40;;;;;;;0.65;0.38;;;16.40;54.50;;;;;;10501556;28;20090;-62
2021/04/27 02:53:41;;;;;;;0.68;0.50;;;16.40;54.50;;;;;;10501393;28;20425;-62
2021/04/27 02:58:42;;;;;;;0.55;0.40;;;16.40;54.50;;;;;;10501029;28;20028;-61
2021/04/27 03:03:43;;;;;;;0.77;0.40;;;16.40;54.60;;;;;;10482987;28;20028;-62
2021/04/27 03:08:44;;;;;;;0.80;0.35;;;16.40;54.50;;;;;;10482900;28;20450;-62
2021/04/27 03:13:44;;;;;;;1.00;0.50;;;16.40;54.50;;;;;;10501095;28;20037;-61
2021/04/27 03:18:45;;;;;;;1.55;0.75;;;16.40;54.50;;;;;;10482286;28;20182;-61
2021/04/27 03:23:46;;;;;;;0.73;0.60;;;16.30;54.40;;;;;;10482227;28;20473;-61
2021/04/27 03:28:47;;;;;;;0.30;0.30;;;16.30;54.40;;;;;;10499968;28;20119;-61
2021/04/27 03:33:48;;;;;;;0.80;0.57;;;16.30;54.40;;;;;;10500157;28;20032;-62
2021/04/27 03:38:48;;;;;;;0.47;0.45;;;16.30;54.40;;;;;;10499483;28;20111;-62
2021/04/27 03:43:49;;;;;;;0.45;0.32;;;16.30;54.40;;;;;;10499189;28;20092;-62
2021/04/27 03:48:50;;;;;;;0.93;0.40;;;16.30;54.40;;;;;;10499071;28;20428;-62
2021/04/27 03:53:51;;;;;;;1.05;0.50;;;16.30;54.40;;;;;;10469410;28;20024;-62
2021/04/27 03:58:52;;;;;;;0.77;0.43;;;16.30;54.40;;;;;;10498049;28;20035;-62
2021/04/27 04:03:52;;;;;;;1.38;0.40;;;16.30;54.40;;;;;;10498105;28;20036;-62
2021/04/27 04:08:54;;;;;;;0.50;0.38;;;16.20;54.30;;;;;;10496671;28;20023;-61
2021/04/27 04:13:54;;;;;;;0.57;0.47;;;16.20;54.30;;;;;;10496103;28;20456;-62
2021/04/27 04:18:55;;;;;;;0.70;0.50;;;16.20;54.30;;;;;;10498472;28;20123;-62
2021/04/27 04:23:56;;;;;;;0.60;0.52;;;16.20;54.30;;;;;;10497976;28;20103;-61
2021/04/27 04:28:57;;;;;;;0.75;0.50;;;16.20;54.30;;;;;;10498051;28;20133;-61
2021/04/27 04:33:58;;;;;;;0.68;0.57;;;16.20;54.30;;;;;;10497918;28;20104;-62
2021/04/27 04:38:58;;;;;;;0.43;0.30;;;16.20;54.30;;;;;;10497716;28;20431;-61
2021/04/27 04:43:59;;;;;;;0.98;0.43;;;16.10;54.30;;;;;;10497328;28;20045;-61
2021/04/27 04:49:00;;;;;;;0.52;0.50;;;16.10;54.20;;;;;;10497564;28;20063;-62
2021/04/27 04:54:01;;;;;;;0.80;0.60;;;16.20;54.30;;;;;;10479798;28;20523;-61
2021/04/27 04:59:02;;;;;;;0.60;0.35;;;16.10;54.20;;;;;;10470885;28;20032;-61
2021/04/27 05:04:04;;;;;;;1.40;0.50;;;16.10;54.30;;;;;;10496890;28;20031;-62
2021/04/27 05:09:07;;;;;;;0.70;0.50;;;16.10;54.30;;;;;;10496707;28;20032;-62
2021/04/27 05:14:08;;;;;;;0.52;0.40;;;16.10;54.30;;;;;;10474585;28;20025;-62
2021/04/27 05:19:09;;;;;;;0.50;0.35;;;16.10;54.30;;;;;;10479037;28;20530;-62
2021/04/27 05:24:10;;;;;;;0.70;0.50;;;16.10;54.30;;;;;;10478569;28;20074;-62
2021/04/27 05:29:11;;;;;;;0.70;0.40;;;16.10;54.50;;;;;;10496297;28;20024;-62
2021/04/27 05:34:11;;;;;;;1.13;0.47;;;16.10;54.40;;;;;;10496604;28;20467;-62
2021/04/27 05:39:13;;;;;;;0.73;0.45;;;16.10;54.40;;;;;;10478107;28;20037;-61
2021/04/27 05:44:14;;;;;;;0.93;0.60;;;16.10;54.40;;;;;;10495708;28;20485;-61
2021/04/27 05:49:16;;;;;;;1.23;0.60;;;16.00;54.40;;;;;;10478019;28;20056;-56
2021/04/27 05:54:17;;;;;;;1.05;0.60;;;16.10;54.40;;;;;;10477847;28;20017;-56
2021/04/27 05:59:18;;;;;;;0.65;0.55;;;16.00;54.40;;;;;;10495911;28;20060;-57
2021/04/27 06:04:19;;;;;;;0.45;0.30;;;16.00;54.40;;;;;;10495682;28;20043;-56
2021/04/27 06:09:19;;;;;;;0.63;0.50;;;16.00;54.50;;;;;;10495976;28;20032;-56
2021/04/27 06:14:20;;;;;;;0.68;0.55;;;16.00;54.50;;;;;;10495629;28;20036;-56
2021/04/27 06:19:21;;;;;;;0.90;0.40;;;16.00;54.70;;;;;;10498397;28;20028;-55
2021/04/27 06:24:22;;;;;;;0.85;0.47;;;16.00;54.70;;;;;;10502945;28;20477;-56
2021/04/27 06:29:22;;;;;;;1.13;0.52;;;16.00;54.80;;;;;;10484580;28;20030;-56
2021/04/27 06:34:23;;;;;;;1.13;0.50;;;16.00;54.80;;;;;;10502439;28;20028;-56
2021/04/27 06:39:25;;;;;;;0.40;0.38;;;16.00;54.80;;;;;;10502385;28;20031;-56
2021/04/27 06:44:25;;;;;;;0.90;0.50;;;16.00;54.80;;;;;;10502394;28;21156;-56
2021/04/27 06:49:26;;;;;;;1.15;0.40;;;16.00;54.80;;;;;;10501807;28;20460;-57
2021/04/27 06:54:27;;;;;;;0.80;0.40;;;15.90;54.90;;;;;;10483923;28;20082;-56
2021/04/27 06:59:31;;;;;;;0.47;0.35;;;16.00;55.00;;;;;;10501624;28;20028;-56
2021/04/27 07:04:36;;;;;;;0.50;0.40;;;16.00;54.60;;;;;;10501397;28;20056;-56
2021/04/27 07:09:37;;;;;;;1.10;0.55;;;16.00;54.60;;;;;;10501167;28;20012;-56
2021/04/27 07:14:38;;;;;;;0.63;0.40;;;15.90;54.70;;;;;;10500938;28;20035;-57
2021/04/27 07:19:39;;;;;;;0.98;0.50;;;16.00;54.50;;;;;;10501040;28;20394;-56
2021/04/27 07:24:39;;;;;;;0.40;0.32;;;15.90;54.40;;;;;;10500377;28;20029;-56
2021/04/27 07:29:40;;;;;;;0.95;0.45;;;15.90;54.30;;;;;;10499310;28;20495;-56
2021/04/27 07:34:41;;;;;;;0.60;0.45;;;15.90;54.40;;;;;;10500399;28;20469;-55
2021/04/27 07:39:42;;;;;;;0.80;0.38;;;15.90;54.40;;;;;;10482200;28;20111;-56
2021/04/27 07:44:43;;;;;;;0.70;0.50;;;15.90;54.50;;;;;;10499719;28;20489;-56
2021/04/27 07:49:44;;;;;;;0.88;0.40;;;15.90;54.50;;;;;;10499368;28;20153;-57
2021/04/27 07:54:46;;;;;;;1.00;0.60;;;15.90;54.50;;;;;;10512892;28;20175;-56
2021/04/27 07:59:47;;;;;;;1.92;0.50;;;16.00;54.60;;;;;;10498994;28;20039;-56
2021/04/27 08:04:48;;;;;;;0.70;0.40;;;16.00;54.70;;;;;;10499204;28;20055;-57
2021/04/27 08:09:48;;;;;;;1.00;0.60;;;16.00;54.70;;;;;;10499006;28;20090;-56
2021/04/27 08:14:49;;;;;;;0.73;0.45;;;16.00;54.70;;;;;;10498499;28;20111;-56
2021/04/27 08:19:51;;;;;;;1.13;0.63;;;16.00;54.80;;;;;;10480422;28;20037;-56
2021/04/27 08:24:52;;;;;;;0.63;0.60;;;16.00;54.80;;;;;;10497934;28;20107;-56
2021/04/27 08:29:52;;;;;;;0.80;0.47;;;16.00;54.80;;;;;;10487163;28;20082;-56
2021/04/27 08:34:54;;;;;;;0.70;0.40;;;16.10;54.90;;;;;;10497808;28;20024;-56
2021/04/27 08:39:54;;;;;;;0.65;0.40;;;16.10;54.90;;;;;;10497799;28;20515;-55
2021/04/27 08:44:55;;;;;;;0.50;0.30;;;16.00;54.80;;;;;;10496797;28;20036;-56
2021/04/27 08:49:56;;;;;;;1.08;0.52;;;16.10;54.90;;;;;;10497390;28;20043;-56
2021/04/27 08:54:57;;;;;;;0.45;0.35;;;16.10;54.90;;;;;;10497277;28;20028;-56
2021/04/27 08:59:57;;;;;;;0.73;0.47;;;16.10;54.90;;;;;;10497176;28;20034;-56
2021/04/27 09:04:58;;;;;;;0.77;0.40;;;16.10;54.90;;;;;;10496705;28;20039;-56
2021/04/27 09:09:59;;;;;;;0.73;0.45;;;16.10;54.90;;;;;;10497163;28;20469;-56
2021/04/27 09:15:01;;;;;;;1.13;0.52;;;16.10;54.90;;;;;;10496714;28;20366;-56
2021/04/27 09:20:02;;;;;;;0.60;0.50;;;16.10;54.80;;;;;;10496796;28;20035;-56
2021/04/27 09:25:07;;;;;;;0.80;0.50;;;16.10;54.90;;;;;;10509931;28;20029;-56
2021/04/27 09:30:26;;;;;;;1.23;0.65;;;16.10;54.90;;;;;;10496193;28;20025;-56
2021/04/27 09:35:43;;;;;;;1.13;0.30;;;16.10;54.90;;;;;;10496395;28;20079;-56
2021/04/27 09:40:56;;;;;;;0.47;0.40;;;16.20;55.00;;;;;;10496233;28;20039;-56
2021/04/27 09:46:02;;;;;;;0.85;0.43;;;16.20;55.00;;;;;;10496042;28;20044;-56
2021/04/27 09:51:15;;;;;;;1.00;0.50;;;16.20;55.00;;;;;;10496103;28;20032;-57
2021/04/27 09:56:50;;;;;;;1.00;0.73;;;16.20;55.00;;;;;;10502502;28;20031;-56
2021/04/27 10:02:04;;;;;;;0.82;0.50;;;16.20;55.00;;;;;;10503953;28;20455;-57
2021/04/27 10:07:05;;;;;;;1.25;0.45;;;16.20;55.00;;;;;;10491127;28;20036;-56
2021/04/27 10:12:08;;;;;;;0.73;0.63;;;16.30;55.00;;;;;;10516989;28;20492;-56
2021/04/27 10:17:15;;;;;;;0.73;0.40;;;16.30;55.10;;;;;;10485156;28;20031;-56
2021/04/27 10:22:17;;;;;;;1.27;0.47;;;16.30;55.00;;;;;;10502869;28;20104;-57
2021/04/27 10:27:25;;;;;;;0.93;0.40;;;16.30;55.00;;;;;;10502593;28;20028;-56
2021/04/27 10:32:26;;;;;;;0.70;0.47;;;16.30;55.00;;;;;;10471825;28;20519;-56
2021/04/27 10:38:08;;;;;;;0.50;0.40;;;16.40;55.00;;;;;;10502561;28;20029;-56
2021/04/27 10:43:26;;;;;;;0.63;0.40;;;16.40;55.00;;;;;;10484457;28;20370;-56
2021/04/27 10:48:31;;;;;;;0.85;0.40;;;16.40;55.00;;;;;;10501916;28;20031;-57
2021/04/27 10:53:36;;;;;;;1.05;1.02;;;16.50;55.10;;;;;;10502108;28;20024;-56
2021/04/27 10:58:54;;;;;;;0.40;0.40;;;16.40;55.10;;;;;;10501918;28;20090;-56
2021/04/27 11:03:59;;;;;;;0.95;0.40;;;16.50;55.10;;;;;;10501264;28;20046;-57
2021/04/27 11:09:12;;;;;;;1.60;0.85;;;16.50;55.10;;;;;;10494520;28;20025;-57
2021/04/27 11:14:22;;;;;;;0.80;0.50;;;16.50;55.10;;;;;;10503710;28;20031;-56
2021/04/27 11:19:27;;;;;;;0.90;0.40;;;16.50;55.10;;;;;;10483656;28;20453;-57
2021/04/27 11:24:37;;;;;;;1.55;0.50;;;16.60;55.10;;;;;;10500885;28;20453;-62
2021/04/27 11:30:15;;;;;;;0.80;0.50;;;16.60;55.10;;;;;;10500459;28;20028;-62
2021/04/27 11:35:21;;;;;;;0.50;0.40;;;16.70;55.20;;;;;;10500400;28;20365;-62
2021/04/27 11:40:30;;;;;;;0.60;0.40;;;16.70;55.10;;;;;;10500177;28;20024;-61
2021/04/27 11:45:34;;;;;;;1.00;0.57;;;16.70;55.00;;;;;;10481900;28;20396;-62
2021/04/27 11:50:35;;;;;;;0.47;0.43;;;16.70;55.00;;;;;;10498589;28;20750;-64
2021/04/27 11:55:50;;;;;;;4.13;0.50;;;16.70;55.00;;;;;;10481035;28;20037;-70
2021/04/27 12:00:56;;;;;;;3.22;1.20;;;16.70;54.90;;;;;;10499687;28;20036;-65
2021/04/27 12:06:13;;;;;;;5.88;1.77;;;16.80;51.90;;;;;;10499433;28;20032;-63
2021/04/27 12:11:25;;;;;;;4.32;1.85;;;16.70;50.60;;;;;;10499229;28;20427;-63
2021/04/27 12:16:52;;;;;;;9.88;2.67;;;16.80;49.90;;;;;;10497853;28;20104;-63
2021/04/27 12:22:02;;;;;;;6.05;3.85;;;16.70;43.60;;;;;;10497544;28;20028;-61
2021/04/27 12:27:19;;;;;;;9.43;4.40;;;16.60;37.20;;;;;;10497683;28;20024;-60
2021/04/27 12:32:27;;;;;;;4.88;3.67;;;16.60;34.60;;;;;;10496472;28;20107;-60
2021/04/27 12:37:37;;;;;;;7.93;3.65;;;16.60;36.40;;;;;;10497986;28;20048;-60
2021/04/27 12:43:08;;;;;;;7.38;3.92;;;16.60;37.40;;;;;;10496022;28;20095;-59
2021/04/27 12:48:10;;;;;;;5.25;3.70;;;16.60;38.20;;;;;;10497232;28;20040;-58
2021/04/27 12:53:10;;;;;;;5.10;4.03;;;16.60;37.90;;;;;;10472186;28;20119;-57
2021/04/27 12:58:18;;;;;;;4.70;3.33;;;16.60;36.70;;;;;;10496622;28;20487;-57
2021/04/27 13:03:27;;;;;;;6.43;4.75;;;16.60;35.60;;;;;;10496785;28;20036;-57
2021/04/27 13:08:28;;;;;;;4.70;3.95;;;16.60;34.70;;;;;;10472176;28;20074;-57
2021/04/27 13:13:29;;;;;;;5.20;4.22;;;16.50;33.90;;;;;;10478068;28;20032;-58
2021/04/27 13:18:32;;;;;;;6.68;3.58;;;16.50;34.00;;;;;;10495852;28;20469;-58
2021/04/27 13:23:34;;;;;;;5.45;3.22;;;16.50;34.00;;;;;;10495572;28;20472;-58
2021/04/27 13:28:38;;;;;;;5.57;3.40;;;16.50;33.50;;;;;;10499484;28;20427;-59
2021/04/27 13:33:42;;;;;;;3.58;3.15;;;16.50;32.20;;;;;;10504509;28;20032;-58
2021/04/27 13:38:44;;;;;;;6.93;3.22;;;16.50;32.70;;;;;;10482913;28;20028;-62
2021/04/27 13:43:48;;;;;;;5.68;3.25;;;16.50;33.10;;;;;;10503330;28;20082;-63
2021/04/27 13:48:49;;;;;;;6.97;4.05;;;16.50;33.10;;;;;;10503795;28;20480;-64
2021/04/27 13:53:50;;;;;;;5.47;3.90;;;16.50;32.90;;;;;;10503324;28;20032;-57
2021/04/27 13:58:51;;;;;;;6.22;4.40;;;16.50;32.50;;;;;;10504361;28;20021;-58
2021/04/27 14:03:51;;;;;;;8.50;4.25;;;16.50;31.40;;;;;;10517722;28;20024;-57
2021/04/27 14:08:53;;;;;;;10.23;4.35;;;16.50;31.90;;;;;;10499278;28;20024;-56
2021/04/27 14:13:53;;;;;;;7.72;3.83;;;16.60;32.60;;;;;;10503270;28;20024;-62
2021/04/27 14:18:54;;;;;;;12.77;3.38;;;16.60;33.50;;;;;;10501394;28;20032;-62
2021/04/27 14:23:55;;;;;;;7.38;4.13;;;16.70;34.40;;;;;;10489770;28;20058;-62
2021/04/27 14:28:55;;;;;;;5.88;2.83;;;16.70;35.20;;;;;;10502715;28;20107;-62
2021/04/27 14:33:56;;;;;;;5.95;2.97;;;16.70;36.00;;;;;;10500862;28;20123;-62
2021/04/27 14:38:57;;;;;;;4.38;2.80;;;16.80;36.70;;;;;;10500396;28;20387;-62
2021/04/27 14:43:58;;;;;;;6.28;2.60;;;16.80;37.20;;;;;;10501782;28;20041;-61
2021/04/27 14:48:59;;;;;;;3.35;1.95;;;16.80;37.70;;;;;;10484193;28;20124;-63
2021/04/27 14:54:00;;;;;;;4.20;2.90;;;16.80;38.20;;;;;;10483993;28;20036;-62
2021/04/27 14:59:01;;;;;;;3.40;2.08;;;16.80;38.70;;;;;;10501820;28;20504;-62
2021/04/27 15:04:02;;;;;;;3.53;2.40;;;16.80;39.10;;;;;;10501524;28;20523;-62
2021/04/27 15:09:06;;;;;;;4.25;2.55;;;16.80;39.60;;;;;;10501267;28;20024;-62
2021/04/27 15:14:08;;;;;;;14.02;2.28;;;16.90;40.10;;;;;;10500253;28;20024;-61
2021/04/27 15:19:10;;;;;;;7.10;2.85;;;16.90;40.90;;;;;;10500163;28;20032;-59
2021/04/27 15:24:13;;;;;;;12.35;2.58;;;16.90;41.60;;;;;;10482399;28;20078;-59
2021/04/27 15:29:14;;;;;;;16.25;3.10;;;17.00;42.20;;;;;;10500119;28;20062;-55
2021/04/27 15:34:15;;;;;;;12.50;2.78;;;17.00;43.10;;;;;;10472425;28;20066;-53
2021/04/27 15:39:16;;;;;;;15.27;3.17;;;17.00;43.10;;;;;;10499703;28;20056;-53
2021/04/27 15:44:17;;;;;;;8.30;2.97;;;17.10;43.80;;;;;;10498847;28;20381;-53
2021/04/27 15:49:18;;;;;;;11.95;4.90;;;17.10;44.00;;;;;;10481682;28;20032;-56
2021/04/27 15:54:22;;;;;;;13.45;2.30;;;17.20;44.00;;;;;;10497722;28;20385;-56
2021/04/27 15:59:22;;;;;;;11.80;2.40;;;17.20;44.30;;;;;;10499573;28;20028;-58
2021/04/27 16:04:23;;;;;;;10.30;3.20;;;17.20;45.20;;;;;;10498375;28;20017;-61
2021/04/27 16:09:24;;;;;;;15.82;3.33;;;17.20;47.00;;;;;;10465077;28;20108;-59
2021/04/27 16:14:25;;;;;;;17.23;3.38;;;17.20;47.30;;;;;;10473217;28;20021;-61
2021/04/27 16:19:26;;;;;;;17.98;3.20;;;17.30;47.50;;;;;;10476838;28;20063;-60
2021/04/27 16:24:26;;;;;;;18.52;3.95;;;17.40;47.00;;;;;;10498488;28;20032;-58
2021/04/27 16:29:28;;;;;;;15.00;3.20;;;17.40;49.80;;;;;;10498048;28;20060;-59
2021/04/27 16:34:28;;;;;;;11.02;2.92;;;17.40;50.90;;;;;;10497845;28;20023;-58
2021/04/27 16:39:29;;;;;;;13.20;2.30;;;17.40;51.40;;;;;;10497600;28;20031;-59
2021/04/27 16:44:30;;;;;;;14.98;3.72;;;17.50;50.70;;;;;;10495505;28;20585;-58
2021/04/27 16:49:31;;;;;;;10.02;2.47;;;17.50;50.60;;;;;;10497738;28;20029;-58
2021/04/27 16:54:32;;;;;;;18.33;2.85;;;17.40;50.10;;;;;;10497646;28;20068;-63
2021/04/27 16:59:33;;;;;;;8.55;2.03;;;17.50;50.30;;;;;;10496302;28;20531;-63
2021/04/27 17:04:33;;;;;;;8.65;2.45;;;17.40;50.00;;;;;;10496040;28;20028;-63
2021/04/27 17:09:34;;;;;;;7.93;2.58;;;17.40;50.00;;;;;;10496121;28;20029;-63
2021/04/27 17:14:35;;;;;;;9.80;2.20;;;17.40;50.10;;;;;;10496055;28;20449;-61
2021/04/27 17:19:36;;;;;;;12.43;2.47;;;17.40;49.80;;;;;;10495811;28;20035;-62
2021/04/27 17:24:36;;;;;;;16.90;2.90;;;17.40;49.60;;;;;;10483051;28;20032;-61
2021/04/27 17:29:37;;;;;;;9.77;2.35;;;17.40;49.80;;;;;;10494849;28;20093;-61
2021/04/27 17:34:38;;;;;;;13.65;2.22;;;17.40;50.10;;;;;;10494725;28;20408;-62
2021/04/27 17:39:39;;;;;;;12.95;2.25;;;17.40;50.10;;;;;;10486039;28;20189;-61
2021/04/27 17:44:39;;;;;;;9.27;2.42;;;17.40;50.00;;;;;;10494166;28;20059;-62
2021/04/27 17:49:41;;;;;;;10.60;1.75;;;17.40;49.70;;;;;;10494438;28;20040;-62
2021/04/27 17:54:42;;;;;;;6.95;1.52;;;17.30;49.60;;;;;;10493950;28;20481;-60
2021/04/27 17:59:43;;;;;;;10.30;2.20;;;17.40;50.30;;;;;;10486043;28;20033;-62
2021/04/27 18:04:43;;;;;;;9.23;1.55;;;17.30;50.40;;;;;;10494025;28;20033;-62
2021/04/27 18:09:44;;;;;;;6.75;1.98;;;17.40;50.70;;;;;;10471503;28;20101;-62
2021/04/27 18:14:45;;;;;;;6.20;1.60;;;17.40;50.80;;;;;;10481236;28;20571;-62
2021/04/27 18:19:46;;;;;;;10.55;1.98;;;17.30;51.00;;;;;;10463174;28;20035;-62
2021/04/27 18:24:49;;;;;;;10.82;2.38;;;17.30;51.10;;;;;;10483381;28;20033;-61
2021/04/27 18:29:50;;;;;;;6.75;1.25;;;17.30;51.10;;;;;;10479205;28;20412;-63
2021/04/27 18:34:51;;;;;;;6.38;2.08;;;17.30;51.20;;;;;;10474913;28;20090;-62
2021/04/27 18:39:52;;;;;;;7.65;1.52;;;17.40;51.10;;;;;;10471812;28;20434;-63
2021/04/27 18:44:53;;;;;;;13.65;2.17;;;17.40;51.30;;;;;;10481853;28;20040;-62
2021/04/27 18:49:53;;;;;;;10.60;1.65;;;17.40;51.50;;;;;;10501871;28;20079;-63
2021/04/27 18:54:54;;;;;;;3.90;1.48;;;17.40;51.70;;;;;;10501412;28;20021;-62
2021/04/27 18:59:55;;;;;;;4.78;1.67;;;17.40;51.50;;;;;;10501541;28;20423;-63
2021/04/27 19:04:55;;;;;;;8.13;1.45;;;17.30;51.50;;;;;;10489847;28;20021;-63
2021/04/27 19:09:57;;;;;;;5.63;1.50;;;17.30;51.60;;;;;;10500931;28;20414;-62
2021/04/27 19:14:58;;;;;;;7.57;1.52;;;17.30;51.70;;;;;;10501139;28;20511;-63
2021/04/27 19:20:00;;;;;;;3.72;1.10;;;17.30;51.80;;;;;;10500582;28;20112;-63
2021/04/27 19:25:00;;;;;;;6.07;2.30;;;17.40;52.00;;;;;;10500268;28;20031;-63
2021/04/27 19:30:03;;;;;;;5.80;1.15;;;17.40;51.90;;;;;;10500496;28;20104;-62
2021/04/27 19:35:04;;;;;;;5.38;1.38;;;17.40;52.00;;;;;;10498056;28;20033;-62
2021/04/27 19:40:07;;;;;;;8.98;1.80;;;17.40;52.10;;;;;;10499971;28;20040;-62
2021/04/27 19:45:09;;;;;;;3.83;0.98;;;17.40;52.20;;;;;;10499472;28;20507;-63
2021/04/27 19:50:13;;;;;;;6.20;1.38;;;17.30;52.10;;;;;;10483633;28;20116;-63
2021/04/27 19:55:15;;;;;;;5.45;1.08;;;17.40;52.30;;;;;;10486002;28;20024;-63
2021/04/27 20:00:19;;;;;;;4.13;2.20;;;17.30;52.40;;;;;;10483707;28;20797;-63
2021/04/27 20:05:22;;;;;;;2.22;0.80;;;17.30;52.30;;;;;;10481461;28;20025;-62
2021/04/27 20:10:23;;;;;;;3.15;1.23;;;17.30;52.50;;;;;;10498854;28;20016;-62
2021/04/27 20:15:25;;;;;;;5.72;1.40;;;17.30;52.60;;;;;;10481740;28;20033;-61
2021/04/27 20:20:26;;;;;;;7.45;1.80;;;17.40;52.60;;;;;;10474792;28;20492;-61
2021/04/27 20:25:27;;;;;;;6.55;2.03;;;17.30;52.10;;;;;;10498408;28;20108;-60
2021/04/27 20:30:28;;;;;;;8.30;1.58;;;17.30;51.80;;;;;;10470326;28;20028;-62
2021/04/27 20:35:30;;;;;;;3.38;1.20;;;17.30;51.80;;;;;;10496351;28;20576;-61
2021/04/27 20:40:32;;;;;;;3.00;1.30;;;17.30;51.70;;;;;;10494960;28;20032;-61
2021/04/27 20:45:35;;;;;;;5.63;1.40;;;17.20;51.50;;;;;;10495180;28;20508;-62
2021/04/27 20:50:36;;;;;;;2.88;0.80;;;17.30;52.10;;;;;;10479646;28;20058;-62
2021/04/27 20:55:37;;;;;;;3.45;0.90;;;17.30;51.50;;;;;;10480029;28;20107;-62
2021/04/27 21:00:40;;;;;;;7.40;2.63;;;17.30;51.40;;;;;;10480068;28;20477;-61
2021/04/27 21:05:42;;;;;;;2.38;1.10;;;17.30;51.30;;;;;;10479841;28;20037;-61
2021/04/27 21:10:43;;;;;;;3.40;1.00;;;17.20;51.40;;;;;;10467306;28;20024;-61
2021/04/27 21:15:43;;;;;;;2.90;1.15;;;17.20;51.40;;;;;;10496986;28;20029;-61
2021/04/27 21:20:44;;;;;;;3.50;1.00;;;17.20;51.40;;;;;;10497390;28;20512;-61
2021/04/27 21:25:45;;;;;;;5.53;1.38;;;17.20;51.40;;;;;;10496822;28;20039;-61
2021/04/27 21:30:46;;;;;;;4.90;1.65;;;17.20;51.40;;;;;;10471278;28;20413;-61
2021/04/27 21:35:47;;;;;;;2.70;0.80;;;17.20;51.30;;;;;;10496918;28;20111;-61
2021/04/27 21:40:48;;;;;;;3.55;1.10;;;17.20;51.30;;;;;;10478765;28;20031;-61
2021/04/27 21:45:48;;;;;;;4.28;1.35;;;17.10;51.30;;;;;;10478335;28;20492;-62
2021/04/27 21:50:49;;;;;;;2.58;1.13;;;17.10;51.30;;;;;;10501032;28;20103;-62
2021/04/27 21:55:50;;;;;;;2.85;1.17;;;17.10;51.20;;;;;;10504513;28;20350;-61
2021/04/27 22:00:50;;;;;;;2.58;0.95;;;17.10;51.20;;;;;;10504512;28;20488;-62
2021/04/27 22:05:52;;;;;;;3.75;1.10;;;17.10;51.20;;;;;;10504351;28;20032;-62
2021/04/27 22:10:52;;;;;;;3.92;0.93;;;17.10;51.20;;;;;;10475287;28;20389;-61
2021/04/27 22:15:53;;;;;;;1.90;1.10;;;17.10;51.20;;;;;;10503772;28;20028;-61
2021/04/27 22:20:54;;;;;;;4.60;1.35;;;17.00;51.20;;;;;;10503568;28;20476;-61
2021/04/27 22:25:55;;;;;;;3.28;1.00;;;17.10;51.20;;;;;;10503306;28;20060;-61
2021/04/27 22:30:56;;;;;;;2.53;0.90;;;17.10;51.20;;;;;;10503445;28;20067;-61
2021/04/27 22:35:57;;;;;;;1.60;0.70;;;17.00;51.10;;;;;;10485123;28;20063;-61
2021/04/27 22:40:59;;;;;;;3.17;0.88;;;17.10;51.20;;;;;;10502841;28;20028;-61
2021/04/27 22:45:59;;;;;;;2.28;0.93;;;17.00;51.20;;;;;;10515734;28;20050;-61
2021/04/27 22:51:00;;;;;;;1.88;0.88;;;17.00;51.20;;;;;;10502707;28;20467;-61
2021/04/27 22:56:02;;;;;;;3.65;1.00;;;17.00;51.20;;;;;;10484537;28;20750;-62
2021/04/27 23:01:03;;;;;;;4.35;0.90;;;17.00;51.10;;;;;;10483772;28;20032;-61
2021/04/27 23:06:04;;;;;;;1.73;0.90;;;17.00;51.10;;;;;;10501824;28;20043;-61
2021/04/27 23:11:05;;;;;;;2.40;0.82;;;16.90;51.00;;;;;;10501278;28;20039;-61
2021/04/27 23:16:05;;;;;;;0.80;0.60;;;17.00;51.10;;;;;;10500191;28;20032;-61
2021/04/27 23:21:06;;;;;;;1.90;1.10;;;17.00;51.10;;;;;;10501419;28;20483;-62
2021/04/27 23:26:09;;;;;;;1.65;0.63;;;17.00;51.10;;;;;;10483157;28;20029;-61
2021/04/27 23:31:10;;;;;;;2.55;0.68;;;16.90;51.10;;;;;;10501043;28;20430;-61
2021/04/27 23:36:13;;;;;;;2.00;0.80;;;16.90;51.10;;;;;;10500744;28;20028;-61
2021/04/27 23:41:14;;;;;;;2.58;1.27;;;16.90;51.10;;;;;;10500887;28;20097;-62
2021/04/27 23:46:15;;;;;;;1.58;0.80;;;16.90;51.10;;;;;;10500115;28;20068;-61
2021/04/27 23:51:16;;;;;;;1.42;0.57;;;16.90;51.10;;;;;;10499736;28;20443;-62
2021/04/27 23:56:17;;;;;;;1.80;0.80;;;16.90;51.10;;;;;;10499850;28;20433;-61
